Terminal Aerodrome Forecast
Issued by NWS

Home | Current Version | Previous Version | Text Only | Print | Product List | Glossary On
Versions: 1 2 3 4 5 6 7 8 9 10 11 12
752
FTUS46 KSTO 271129
TAFRBL
TAF
KRBL 271129Z 2712/2812 33010KT P6SM SCT250
     FM271800 34010G15KT P6SM SCT250
     FM280100 35008KT P6SM SCT250=

USA.gov is the U.S. government's official web portal to all federal, state and local government web resources and services.